createdAt,value
2018-05-11T00:02:09.093Z,99.90
2018-05-11T00:04:37.629Z,99.90
2018-05-11T00:07:05.093Z,99.90
2018-05-11T00:09:32.554Z,99.90
2018-05-11T00:12:00.029Z,99.90
2018-05-11T00:14:27.519Z,99.90
2018-05-11T00:16:54.963Z,99.90
2018-05-11T00:19:22.440Z,99.90
2018-05-11T00:21:49.940Z,99.90
2018-05-11T00:24:17.420Z,99.90
2018-05-11T00:26:44.867Z,99.90
2018-05-11T00:29:12.347Z,99.90
2018-05-11T00:31:39.993Z,99.90
2018-05-11T00:34:08.237Z,99.90
2018-05-11T00:36:35.706Z,99.90
2018-05-11T00:39:03.183Z,99.90
2018-05-11T00:41:30.670Z,99.90
2018-05-11T00:43:58.146Z,99.90
2018-05-11T00:46:25.788Z,99.90
2018-05-11T00:48:53.280Z,99.90
2018-05-11T00:51:20.766Z,99.90
2018-05-11T00:53:48.242Z,99.90
2018-05-11T00:56:15.724Z,99.90
2018-05-11T00:58:47.256Z,99.90
2018-05-11T01:01:14.718Z,99.90
2018-05-11T01:03:42.757Z,99.90
2018-05-11T01:06:10.214Z,99.90
2018-05-11T01:08:37.698Z,99.90
2018-05-11T01:11:05.158Z,99.90
2018-05-11T01:13:32.631Z,99.90
2018-05-11T01:16:00.086Z,99.90
2018-05-11T01:18:27.574Z,99.90
2018-05-11T01:20:55.032Z,99.90
2018-05-11T01:23:23.279Z,99.90
2018-05-11T01:25:50.781Z,99.90
2018-05-11T01:28:18.232Z,99.90
2018-05-11T01:30:46.237Z,99.90
2018-05-11T01:33:13.720Z,99.90
2018-05-11T01:35:41.943Z,99.90
2018-05-11T01:38:09.433Z,99.90
2018-05-11T01:40:36.911Z,99.90
2018-05-11T01:43:04.374Z,99.90
2018-05-11T01:45:31.863Z,99.90
2018-05-11T01:47:59.314Z,99.90
2018-05-11T01:50:26.804Z,99.90
2018-05-11T01:52:54.291Z,99.90
2018-05-11T01:55:21.771Z,99.90
2018-05-11T01:57:50.010Z,99.90
2018-05-11T02:00:18.244Z,99.90
2018-05-11T02:02:45.701Z,99.90
2018-05-11T02:05:13.181Z,99.90
2018-05-11T02:07:40.654Z,99.90
2018-05-11T02:10:08.132Z,99.90
2018-05-11T02:12:35.611Z,99.90
2018-05-11T02:15:03.072Z,99.90
2018-05-11T02:17:30.557Z,99.90
2018-05-11T02:19:58.035Z,99.90
2018-05-11T02:22:25.864Z,99.90
2018-05-11T02:24:53.296Z,99.90
2018-05-11T02:27:20.774Z,99.90
2018-05-11T02:29:48.235Z,99.90
2018-05-11T02:32:15.719Z,99.90
2018-05-11T02:34:43.222Z,99.90
2018-05-11T02:37:11.493Z,99.90
2018-05-11T02:39:38.957Z,99.90
2018-05-11T02:42:06.423Z,99.90
2018-05-11T02:44:33.932Z,99.90
2018-05-11T02:47:01.631Z,99.90
2018-05-11T02:49:29.090Z,99.90
2018-05-11T02:51:56.606Z,99.90
2018-05-11T02:54:24.056Z,99.90
2018-05-11T02:56:51.548Z,99.90
2018-05-11T02:59:19.019Z,99.90
2018-05-11T03:01:46.471Z,99.90
2018-05-11T03:04:13.955Z,99.90
2018-05-11T03:06:41.426Z,99.90
2018-05-11T03:12:22.209Z,99.90
2018-05-11T03:24:34.747Z,99.90
2018-05-11T03:27:02.237Z,99.90
2018-05-11T03:29:29.731Z,99.90
2018-05-11T03:31:57.200Z,99.90
2018-05-11T03:34:24.724Z,99.90
2018-05-11T03:36:52.992Z,99.90
2018-05-11T03:39:21.218Z,99.90
2018-05-11T03:41:50.060Z,99.90
2018-05-11T03:44:17.563Z,99.90
2018-05-11T03:46:45.039Z,99.90
2018-05-11T03:49:12.512Z,99.90
2018-05-11T03:51:39.992Z,99.90
2018-05-11T03:54:07.471Z,99.90
2018-05-11T03:56:34.951Z,99.90
2018-05-11T03:59:02.418Z,99.90
2018-05-11T04:01:41.684Z,99.90
2018-05-11T04:04:21.009Z,99.90
2018-05-11T04:07:01.267Z,99.90
2018-05-11T04:09:28.723Z,99.90
2018-05-11T04:11:56.186Z,99.90
2018-05-11T04:14:24.251Z,99.90
2018-05-11T04:16:52.502Z,99.90
2018-05-11T04:19:19.947Z,99.90
2018-05-11T04:21:47.407Z,99.90
2018-05-11T04:24:14.886Z,99.90
2018-05-11T04:26:42.366Z,99.90
2018-05-11T04:29:09.826Z,99.90
2018-05-11T04:31:37.303Z,99.90
2018-05-11T04:34:04.798Z,99.90
2018-05-11T04:39:35.484Z,99.90
2018-05-11T04:42:03.752Z,99.90
2018-05-11T04:44:32.059Z,99.90
2018-05-11T04:46:59.575Z,99.90
2018-05-11T04:49:27.050Z,99.90
2018-05-11T04:51:54.614Z,99.90
2018-05-11T04:54:22.091Z,99.90
2018-05-11T04:56:49.578Z,99.90
2018-05-11T04:59:17.045Z,99.90
2018-05-11T05:01:44.528Z,99.90
2018-05-11T05:04:15.710Z,99.90
2018-05-11T05:06:43.940Z,99.90
2018-05-11T05:09:11.458Z,99.90
2018-05-11T05:11:38.916Z,99.90
2018-05-11T05:14:06.402Z,99.90
2018-05-11T05:16:33.888Z,99.90
2018-05-11T05:19:01.361Z,99.90
2018-05-11T05:21:28.832Z,99.90
2018-05-11T05:23:56.301Z,99.90
2018-05-11T05:26:23.812Z,99.90
2018-05-11T05:28:52.055Z,99.90
2018-05-11T05:31:19.531Z,99.90
2018-05-11T05:33:47.111Z,99.90
2018-05-11T05:36:14.643Z,99.90
2018-05-11T05:38:42.105Z,99.90
2018-05-11T05:41:11.284Z,99.90
2018-05-11T05:43:38.738Z,99.90
2018-05-11T05:46:19.127Z,99.90
2018-05-11T05:48:46.595Z,99.90
2018-05-11T05:51:14.034Z,99.90
2018-05-11T05:53:41.515Z,99.90
2018-05-11T05:56:09.011Z,99.90
2018-05-11T05:58:36.581Z,99.90
2018-05-11T06:01:03.969Z,99.90
2018-05-11T06:03:31.418Z,99.90
2018-05-11T06:05:59.379Z,99.90
2018-05-11T06:08:26.860Z,99.50
2018-05-11T06:10:55.097Z,99.80
2018-05-11T06:13:23.312Z,99.90
2018-05-11T06:15:51.367Z,99.90
2018-05-11T06:18:18.845Z,98.60
2018-05-11T06:20:46.311Z,98.10
2018-05-11T06:23:13.779Z,97.70
2018-05-11T06:25:41.225Z,97.00
2018-05-11T06:28:09.503Z,96.40
2018-05-11T06:30:36.985Z,96.30
2018-05-11T06:33:04.443Z,96.00
2018-05-11T06:35:31.913Z,96.20
2018-05-11T06:37:59.378Z,97.10
2018-05-11T06:40:26.882Z,96.50
2018-05-11T06:42:54.279Z,96.30
2018-05-11T06:45:21.738Z,96.60
2018-05-11T06:47:50.001Z,98.00
2018-05-11T06:50:17.463Z,98.00
2018-05-11T06:52:44.940Z,98.80
2018-05-11T06:55:12.432Z,98.40
2018-05-11T06:57:39.867Z,98.30
2018-05-11T07:00:07.342Z,97.20
2018-05-11T07:02:34.803Z,97.80
2018-05-11T07:05:02.262Z,98.00
2018-05-11T07:07:30.761Z,96.60
2018-05-11T07:09:59.022Z,96.30
2018-05-11T07:12:26.470Z,96.30
2018-05-11T07:14:53.940Z,97.30
2018-05-11T07:17:21.393Z,97.10
2018-05-11T07:19:49.611Z,94.60
2018-05-11T07:22:17.054Z,94.60
2018-05-11T07:24:45.311Z,94.60
2018-05-11T07:27:12.785Z,94.60
2018-05-11T07:29:40.262Z,93.40
2018-05-11T07:32:07.749Z,92.10
2018-05-11T07:34:35.194Z,90.50
2018-05-11T07:37:02.706Z,89.60
2018-05-11T07:39:30.212Z,86.80
2018-05-11T07:41:57.706Z,85.30
2018-05-11T07:44:25.188Z,83.70
2018-05-11T07:46:52.649Z,82.20
2018-05-11T07:49:20.114Z,82.50
2018-05-11T07:51:48.362Z,81.20
2018-05-11T07:54:15.816Z,81.20
2018-05-11T07:56:43.275Z,81.00
2018-05-11T07:59:10.763Z,78.20
2018-05-11T08:01:38.245Z,77.10
2018-05-11T08:04:05.776Z,77.20
2018-05-11T08:06:34.013Z,80.50
2018-05-11T08:09:01.543Z,80.60
2018-05-11T08:11:29.780Z,80.70
2018-05-11T08:13:57.219Z,80.70
2018-05-11T08:16:24.696Z,78.90
2018-05-11T08:18:52.197Z,77.50
2018-05-11T08:21:20.411Z,75.90
2018-05-11T08:23:47.962Z,76.20
2018-05-11T08:26:15.441Z,76.10
2018-05-11T08:28:42.921Z,74.10
2018-05-11T08:31:10.398Z,73.80
2018-05-11T08:33:37.898Z,74.70
2018-05-11T08:36:05.522Z,77.10
2018-05-11T08:38:33.081Z,74.60
2018-05-11T08:41:01.300Z,73.50
2018-05-11T08:43:29.083Z,74.30
2018-05-11T08:45:56.512Z,72.50
2018-05-11T08:48:23.958Z,74.30
2018-05-11T08:50:51.433Z,71.80
2018-05-11T08:53:18.904Z,69.50
2018-05-11T08:55:46.380Z,68.20
2018-05-11T08:58:13.822Z,69.40
2018-05-11T09:00:41.295Z,68.90
2018-05-11T09:03:08.851Z,67.50
2018-05-11T09:05:36.242Z,67.00
2018-05-11T09:08:03.722Z,67.50
2018-05-11T09:10:31.996Z,65.80
2018-05-11T09:12:59.423Z,65.80
2018-05-11T09:15:27.703Z,65.80
2018-05-11T09:17:55.157Z,62.70
2018-05-11T09:20:22.674Z,62.10
2018-05-11T09:22:50.144Z,61.30
2018-05-11T09:25:17.626Z,63.60
2018-05-11T09:27:45.077Z,63.00
2018-05-11T09:30:12.582Z,60.20
2018-05-11T09:32:40.114Z,59.10
2018-05-11T09:35:08.301Z,59.80
2018-05-11T09:37:35.792Z,59.70
2018-05-11T09:40:03.240Z,60.20
2018-05-11T09:42:31.494Z,56.50
2018-05-11T09:44:58.954Z,56.50
2018-05-11T09:47:26.436Z,55.10
2018-05-11T09:49:53.942Z,54.70
2018-05-11T09:52:21.401Z,55.20
2018-05-11T09:54:48.861Z,54.90
2018-05-11T09:57:16.409Z,56.30
2018-05-11T09:59:44.601Z,56.30
2018-05-11T10:02:12.067Z,56.30
2018-05-11T10:04:39.522Z,54.10
2018-05-11T10:07:07.779Z,54.50
2018-05-11T10:09:35.239Z,54.50
2018-05-11T10:12:03.456Z,56.10
2018-05-11T10:14:34.909Z,56.10
2018-05-11T10:17:02.357Z,57.20
2018-05-11T10:19:30.522Z,56.50
2018-05-11T10:21:58.782Z,56.50
2018-05-11T10:24:27.018Z,56.40
2018-05-11T10:26:54.467Z,56.40
2018-05-11T10:29:21.947Z,56.60
2018-05-11T10:31:50.259Z,56.00
2018-05-11T10:34:18.499Z,54.10
2018-05-11T10:36:45.981Z,54.10
2018-05-11T10:39:13.447Z,53.70
2018-05-11T10:41:40.910Z,57.40
2018-05-11T10:44:08.363Z,59.50
2018-05-11T10:46:35.836Z,59.10
2018-05-11T10:49:03.280Z,57.80
2018-05-11T10:51:30.780Z,58.10
2018-05-11T10:53:59.007Z,53.10
2018-05-11T10:56:26.530Z,53.00
2018-05-11T10:58:53.975Z,52.90
2018-05-11T11:01:21.462Z,51.20
2018-05-11T11:03:48.909Z,50.90
2018-05-11T11:06:16.384Z,49.10
2018-05-11T11:08:43.829Z,50.20
2018-05-11T11:11:11.298Z,49.90
2018-05-11T11:13:39.504Z,50.30
2018-05-11T11:16:06.981Z,50.40
2018-05-11T11:18:34.423Z,50.00
2018-05-11T11:21:01.903Z,48.90
2018-05-11T11:23:30.154Z,47.90
2018-05-11T11:25:57.662Z,47.80
2018-05-11T11:28:25.092Z,48.30
2018-05-11T11:30:52.546Z,48.70
2018-05-11T11:33:20.039Z,49.00
2018-05-11T11:35:47.502Z,48.20
2018-05-11T11:38:14.975Z,48.50
2018-05-11T11:40:42.440Z,49.90
2018-05-11T11:43:09.931Z,51.40
2018-05-11T11:45:37.443Z,52.10
2018-05-11T11:48:04.920Z,51.80
2018-05-11T11:50:32.375Z,51.70
2018-05-11T11:52:59.861Z,52.80
2018-05-11T11:55:27.338Z,53.50
2018-05-11T11:57:55.579Z,52.40
2018-05-11T12:00:23.091Z,52.40
2018-05-11T12:02:50.538Z,52.60
2018-05-11T12:05:18.051Z,53.10
2018-05-11T12:07:45.542Z,52.10
2018-05-11T12:10:12.988Z,52.10
2018-05-11T12:12:40.489Z,51.10
2018-05-11T12:15:07.935Z,52.40
2018-05-11T12:17:35.378Z,53.60
2018-05-11T12:20:03.608Z,54.50
2018-05-11T12:22:31.076Z,54.50
2018-05-11T12:24:58.574Z,54.10
2018-05-11T12:27:26.007Z,53.90
2018-05-11T12:29:53.495Z,53.80
2018-05-11T12:32:20.934Z,53.90
2018-05-11T12:34:49.867Z,54.00
2018-05-11T12:37:17.247Z,54.00
2018-05-11T12:39:44.718Z,54.30
2018-05-11T12:42:16.228Z,55.30
2018-05-11T12:44:43.688Z,55.50
2018-05-11T12:47:11.181Z,56.20
2018-05-11T12:49:38.673Z,55.80
2018-05-11T12:52:06.182Z,57.10
2018-05-11T12:54:33.690Z,57.70
2018-05-11T12:57:01.130Z,56.30
2018-05-11T12:59:28.613Z,56.60
2018-05-11T13:01:56.075Z,57.10
2018-05-11T13:04:23.540Z,57.30
2018-05-11T13:06:51.987Z,56.90
2018-05-11T13:09:19.464Z,56.60
2018-05-11T13:11:46.993Z,57.10
2018-05-11T13:14:15.189Z,55.70
2018-05-11T13:16:43.436Z,56.70
2018-05-11T13:19:11.658Z,56.80
2018-05-11T13:21:39.115Z,56.80
2018-05-11T13:24:08.627Z,56.10
2018-05-11T13:26:36.073Z,56.50
2018-05-11T13:29:03.561Z,56.20
2018-05-11T13:31:31.042Z,56.50
2018-05-11T13:33:58.508Z,56.50
2018-05-11T13:36:26.050Z,57.50
2018-05-11T13:38:53.424Z,57.70
2018-05-11T13:41:20.857Z,58.30
2018-05-11T13:43:48.340Z,58.10
2018-05-11T13:46:15.782Z,58.50
2018-05-11T13:48:43.246Z,58.30
2018-05-11T13:51:10.690Z,58.20
2018-05-11T13:53:38.158Z,58.20
2018-05-11T13:56:06.407Z,57.90
2018-05-11T13:58:34.598Z,58.10
2018-05-11T14:01:02.168Z,58.10
2018-05-11T14:03:29.672Z,59.40
2018-05-11T14:05:57.107Z,59.90
2018-05-11T14:08:24.590Z,59.90
2018-05-11T14:10:52.083Z,60.10
2018-05-11T14:13:19.564Z,62.00
2018-05-11T14:15:48.481Z,60.70
2018-05-11T14:18:16.292Z,60.80
2018-05-11T14:20:45.724Z,61.80
2018-05-11T14:23:14.350Z,62.50
2018-05-11T14:25:41.818Z,62.40
2018-05-11T14:28:10.512Z,60.50
2018-05-11T14:30:41.991Z,60.80
2018-05-11T14:33:09.470Z,60.50
2018-05-11T14:35:36.965Z,59.20
2018-05-11T14:38:04.456Z,59.00
2018-05-11T14:53:27.512Z,59.40
2018-05-11T14:55:55.020Z,58.30
2018-05-11T14:58:23.006Z,58.30
2018-05-11T15:00:51.184Z,57.40
2018-05-11T15:03:18.976Z,57.60
2018-05-11T15:05:47.513Z,57.50
2018-05-11T15:08:16.426Z,57.90
2018-05-11T15:10:48.333Z,57.80
2018-05-11T15:13:17.717Z,60.30
2018-05-11T15:15:45.175Z,60.40
2018-05-11T15:18:13.141Z,60.40
2018-05-11T15:20:41.340Z,61.20
2018-05-11T15:23:09.097Z,61.20
2018-05-11T15:25:41.354Z,62.10
2018-05-11T15:37:49.266Z,62.10
2018-05-11T15:49:57.277Z,62.40
2018-05-11T16:05:19.799Z,64.20
2018-05-11T16:07:48.142Z,64.50
2018-05-11T16:19:56.084Z,65.10
2018-05-11T16:22:25.662Z,65.50
2018-05-11T16:24:53.150Z,65.00
2018-05-11T16:27:20.640Z,65.50
2018-05-11T16:29:49.173Z,66.40
2018-05-11T16:32:16.869Z,66.30
2018-05-11T16:34:44.557Z,66.20
2018-05-11T16:37:12.095Z,66.30
2018-05-11T16:52:39.755Z,69.10
2018-05-11T16:55:07.223Z,69.00
2018-05-11T16:57:34.783Z,68.90
2018-05-11T17:00:02.295Z,68.90
2018-05-11T17:02:30.051Z,69.50
2018-05-11T17:14:37.806Z,70.20
2018-05-11T17:17:05.255Z,70.10
2018-05-11T17:19:32.781Z,70.30
2018-05-11T17:22:01.032Z,70.70
2018-05-11T17:24:28.573Z,70.50
2018-05-11T17:26:56.636Z,71.00
2018-05-11T17:29:24.149Z,71.10
2018-05-11T17:31:51.631Z,70.20
2018-05-11T17:34:19.874Z,72.60
2018-05-11T17:36:47.995Z,71.80
2018-05-11T17:39:15.485Z,71.90
2018-05-11T17:41:43.790Z,72.30
2018-05-11T17:44:11.512Z,72.40
2018-05-11T17:46:39.554Z,72.20
2018-05-11T17:49:08.333Z,72.50
2018-05-11T17:51:43.643Z,73.00
2018-05-11T17:54:11.097Z,73.00
2018-05-11T17:56:39.334Z,73.40
2018-05-11T17:59:06.788Z,73.40
2018-05-11T18:01:34.548Z,73.10
2018-05-11T18:04:02.770Z,73.30
2018-05-11T18:16:15.146Z,73.30
2018-05-11T18:28:23.494Z,77.40
2018-05-11T18:43:46.895Z,82.30
2018-05-11T18:46:15.158Z,82.40
2018-05-11T18:48:42.658Z,82.20
2018-05-11T19:00:54.277Z,83.10
2018-05-11T19:03:23.053Z,84.70
2018-05-11T19:05:50.560Z,84.60
2018-05-11T19:08:18.097Z,86.60
2018-05-11T19:10:46.259Z,86.90
2018-05-11T19:13:18.467Z,85.80
2018-05-11T19:15:51.098Z,86.20
2018-05-11T19:18:18.570Z,86.20
2018-05-11T19:20:46.007Z,86.30
2018-05-11T19:23:14.362Z,86.50
2018-05-11T19:38:37.122Z,86.30
2018-05-11T19:50:45.462Z,88.50
2018-05-11T19:53:14.603Z,90.80
2018-05-11T19:55:42.117Z,90.80
2018-05-11T19:58:13.952Z,91.20
2018-05-11T20:00:41.422Z,91.10
2018-05-11T20:03:09.324Z,91.50
2018-05-11T20:15:16.831Z,91.80
2018-05-11T20:17:44.378Z,93.60
2018-05-11T20:33:06.887Z,94.20
2018-05-11T20:35:38.324Z,96.40
2018-05-11T20:38:06.158Z,96.60
2018-05-11T20:40:34.349Z,97.90
2018-05-11T20:43:01.887Z,97.80
2018-05-11T20:45:30.132Z,97.90
2018-05-11T20:47:57.623Z,97.80
2018-05-11T20:50:25.121Z,98.00
2018-05-11T20:52:56.739Z,98.20
2018-05-11T20:55:24.238Z,98.70
2018-05-11T20:57:51.702Z,98.80
2018-05-11T21:00:19.202Z,99.00
2018-05-11T21:02:46.727Z,98.60
2018-05-11T21:05:14.167Z,98.60
2018-05-11T21:07:41.658Z,98.60
2018-05-11T21:10:09.229Z,99.00
2018-05-11T21:12:36.670Z,99.20
2018-05-11T21:15:04.910Z,99.70
2018-05-11T21:17:32.491Z,99.70
2018-05-11T21:19:59.948Z,99.90
2018-05-11T21:22:27.387Z,99.90
2018-05-11T21:24:55.643Z,99.90
2018-05-11T21:27:23.117Z,99.90
2018-05-11T21:29:50.576Z,99.90
2018-05-11T21:32:18.020Z,99.90
2018-05-11T21:34:46.257Z,99.90
2018-05-11T21:37:13.742Z,99.90
2018-05-11T21:39:41.220Z,99.90
2018-05-11T21:42:08.682Z,99.90
2018-05-11T21:44:36.175Z,99.90
2018-05-11T21:47:03.645Z,99.90
2018-05-11T21:49:31.112Z,99.90
2018-05-11T21:51:58.566Z,99.90
2018-05-11T21:54:26.042Z,99.90
2018-05-11T21:56:53.540Z,99.90
2018-05-11T21:59:20.998Z,99.90
2018-05-11T22:01:48.476Z,99.90
2018-05-11T22:04:15.997Z,99.90
2018-05-11T22:06:43.450Z,99.90
2018-05-11T22:09:10.921Z,99.90
2018-05-11T22:11:38.398Z,99.90
2018-05-11T22:14:05.884Z,99.90
2018-05-11T22:16:33.352Z,99.90
2018-05-11T22:19:00.806Z,99.90
2018-05-11T22:21:28.286Z,99.90
2018-05-11T22:23:55.770Z,99.90
2018-05-11T22:26:23.223Z,99.90
2018-05-11T22:28:54.533Z,99.90
2018-05-11T22:31:22.002Z,99.90
2018-05-11T22:33:49.453Z,99.90
2018-05-11T22:36:16.937Z,99.90
2018-05-11T22:38:44.399Z,99.90
2018-05-11T22:41:11.874Z,99.90
2018-05-11T22:43:39.338Z,99.90
2018-05-11T22:46:06.825Z,99.90
2018-05-11T22:48:34.278Z,99.90
2018-05-11T22:51:01.737Z,99.90
2018-05-11T22:53:34.074Z,99.90
2018-05-11T22:56:01.595Z,99.90
2018-05-11T22:58:29.039Z,99.90
2018-05-11T23:00:56.482Z,99.90
2018-05-11T23:03:23.956Z,99.90
2018-05-11T23:05:51.432Z,99.90
2018-05-11T23:08:22.752Z,99.90
2018-05-11T23:10:50.206Z,99.90
2018-05-11T23:13:17.663Z,99.90
2018-05-11T23:15:45.125Z,99.90
2018-05-11T23:18:12.615Z,99.90
2018-05-11T23:20:40.074Z,99.90
2018-05-11T23:23:07.575Z,99.90
2018-05-11T23:25:35.950Z,99.90
2018-05-11T23:28:03.430Z,99.90
2018-05-11T23:30:32.159Z,99.90
2018-05-11T23:32:59.635Z,99.90
2018-05-11T23:35:27.110Z,99.90
2018-05-11T23:37:54.600Z,99.90
2018-05-11T23:40:22.104Z,99.90
2018-05-11T23:42:49.590Z,99.90
2018-05-11T23:45:17.054Z,99.90
2018-05-11T23:47:44.550Z,99.90
2018-05-11T23:50:12.037Z,99.90
